createdAt,value
2019-04-28T00:01:06.453Z,9.43
2019-04-28T00:03:37.604Z,10.60
2019-04-28T00:06:10.971Z,12.58
2019-04-28T00:08:42.901Z,11.93
2019-04-28T00:11:14.240Z,10.87
2019-04-28T00:13:45.612Z,12.95
2019-04-28T00:16:16.898Z,8.60
2019-04-28T00:18:48.194Z,9.05
2019-04-28T00:21:38.355Z,8.97
2019-04-28T00:24:37.626Z,10.18
2019-04-28T00:27:11.626Z,10.23
2019-04-28T00:29:46.057Z,9.33
2019-04-28T00:32:16.066Z,10.05
2019-04-28T00:34:47.350Z,9.20
2019-04-28T00:37:31.939Z,10.73
2019-04-28T00:40:05.029Z,10.70
2019-04-28T00:42:36.398Z,9.95
2019-04-28T00:45:09.356Z,10.32
2019-04-28T00:47:42.764Z,14.73
2019-04-28T00:50:14.319Z,9.05
2019-04-28T00:52:45.497Z,10.30
2019-04-28T00:55:16.662Z,9.40
2019-04-28T00:57:47.827Z,9.78
2019-04-28T01:00:21.523Z,10.60
2019-04-28T01:02:53.713Z,9.45
2019-04-28T01:05:25.102Z,10.73
2019-04-28T01:07:56.363Z,10.97
2019-04-28T01:10:28.074Z,11.48
2019-04-28T01:12:59.317Z,15.53
2019-04-28T01:16:09.362Z,11.95
2019-04-28T01:18:46.250Z,13.38
2019-04-28T01:21:17.466Z,11.13
2019-04-28T01:23:50.146Z,11.60
2019-04-28T01:26:21.611Z,14.68
2019-04-28T01:28:52.828Z,15.78
2019-04-28T01:31:49.457Z,12.30
2019-04-28T01:34:22.499Z,13.73
2019-04-28T01:36:53.691Z,10.88
2019-04-28T01:39:24.898Z,11.77
2019-04-28T01:41:56.092Z,16.40
2019-04-28T01:44:27.485Z,14.90
2019-04-28T01:46:59.634Z,11.73
2019-04-28T01:49:31.562Z,11.97
2019-04-28T01:52:02.748Z,12.00
2019-04-28T01:54:33.951Z,14.10
2019-04-28T01:57:05.183Z,11.85
2019-04-28T01:59:36.386Z,12.57
2019-04-28T02:02:07.677Z,14.70
2019-04-28T02:04:40.156Z,14.93
2019-04-28T02:07:11.720Z,13.32
2019-04-28T02:09:42.910Z,13.53
2019-04-28T02:12:14.109Z,11.93
2019-04-28T02:14:45.317Z,13.65
2019-04-28T02:17:16.475Z,12.50
2019-04-28T02:19:47.668Z,15.53
2019-04-28T02:22:31.768Z,14.90
2019-04-28T02:25:03.175Z,13.48
2019-04-28T02:27:34.456Z,15.05
2019-04-28T02:30:10.957Z,14.60
2019-04-28T02:32:41.229Z,13.35
2019-04-28T02:35:12.478Z,18.63
2019-04-28T02:37:43.698Z,16.50
2019-04-28T02:40:14.979Z,16.87
2019-04-28T02:42:46.220Z,15.93
2019-04-28T02:45:22.005Z,15.73
2019-04-28T02:47:56.431Z,20.83
2019-04-28T02:50:43.912Z,18.90
2019-04-28T02:53:23.455Z,15.18
2019-04-28T02:55:54.694Z,14.50
2019-04-28T02:58:25.846Z,16.87
2019-04-28T03:01:06.306Z,17.52
2019-04-28T03:03:30.760Z,16.82
2019-04-28T03:06:03.249Z,15.80
2019-04-28T03:08:34.533Z,16.87
2019-04-28T03:11:06.840Z,18.54
2019-04-28T03:13:41.090Z,14.93
2019-04-28T03:16:13.780Z,16.93
2019-04-28T03:18:45.058Z,20.47
2019-04-28T03:21:16.410Z,18.83
2019-04-28T03:23:47.652Z,18.00
2019-04-28T03:26:34.760Z,19.43
2019-04-28T03:29:34.155Z,19.65
2019-04-28T03:32:40.174Z,20.55
2019-04-28T03:35:03.102Z,21.77
2019-04-28T03:37:34.180Z,20.13
2019-04-28T03:40:05.712Z,22.58
2019-04-28T03:42:36.907Z,23.67
2019-04-28T03:45:14.539Z,24.70
2019-04-28T03:47:45.734Z,24.63
2019-04-28T03:50:17.034Z,23.93
2019-04-28T03:52:51.014Z,22.85
2019-04-28T03:55:21.447Z,25.47
2019-04-28T03:57:52.775Z,21.73
2019-04-28T04:00:23.914Z,24.90
2019-04-28T04:02:56.835Z,27.82
2019-04-28T04:05:30.426Z,23.67
2019-04-28T04:08:01.129Z,27.33
2019-04-28T04:10:51.405Z,24.95
2019-04-28T04:13:32.694Z,24.43
2019-04-28T04:16:20.793Z,21.87
2019-04-28T04:18:53.995Z,22.10
2019-04-28T04:21:26.454Z,25.02
2019-04-28T04:23:57.707Z,26.93
2019-04-28T04:26:31.026Z,23.22
2019-04-28T04:29:01.831Z,27.97
2019-04-28T04:31:33.015Z,24.73
2019-04-28T04:34:04.214Z,25.67
2019-04-28T04:36:35.432Z,26.40
2019-04-28T04:39:10.604Z,25.26
2019-04-28T04:41:43.455Z,25.72
2019-04-28T04:44:13.632Z,26.37
2019-04-28T04:46:44.824Z,26.80
2019-04-28T04:49:16.034Z,26.83
2019-04-28T04:51:47.245Z,23.47
2019-04-28T04:54:20.448Z,22.87
2019-04-28T04:56:51.376Z,23.00
2019-04-28T04:59:22.609Z,27.20
2019-04-28T05:02:26.736Z,27.70
2019-04-28T05:04:55.562Z,23.73
2019-04-28T05:07:26.764Z,24.32
2019-04-28T05:09:59.539Z,27.50
2019-04-28T05:12:30.904Z,23.50
2019-04-28T05:15:02.076Z,23.25
2019-04-28T05:17:34.379Z,26.27
2019-04-28T05:20:06.741Z,26.70
2019-04-28T05:22:43.097Z,23.67
2019-04-28T05:25:20.428Z,22.90
2019-04-28T05:27:54.580Z,24.80
2019-04-28T05:30:24.600Z,29.33
2019-04-28T05:32:57.325Z,22.57
2019-04-28T05:35:29.760Z,22.42
2019-04-28T05:38:00.984Z,24.10
2019-04-28T05:40:32.203Z,22.45
2019-04-28T05:43:03.402Z,20.82
2019-04-28T05:45:34.608Z,19.60
2019-04-28T05:48:08.752Z,17.13
2019-04-28T05:50:50.372Z,26.83
2019-04-28T05:53:36.863Z,17.90
2019-04-28T05:56:36.164Z,15.10
2019-04-28T05:59:12.377Z,12.23
2019-04-28T06:02:01.916Z,14.70
2019-04-28T06:04:33.162Z,12.03
2019-04-28T06:07:14.942Z,10.35
2019-04-28T06:09:50.094Z,10.73
2019-04-28T06:12:21.613Z,10.88
2019-04-28T06:14:52.992Z,13.00
2019-04-28T06:17:24.126Z,8.30
2019-04-28T06:19:55.312Z,7.37
2019-04-28T06:22:27.488Z,7.72
2019-04-28T06:24:58.828Z,7.63
2019-04-28T06:27:32.567Z,7.10
2019-04-28T06:30:04.034Z,8.85
2019-04-28T06:32:35.572Z,6.80
2019-04-28T06:35:06.797Z,60.17
2019-04-28T06:37:38.082Z,19.30
2019-04-28T06:40:09.354Z,7.77
2019-04-28T06:42:40.632Z,6.43
2019-04-28T06:45:11.922Z,7.43
2019-04-28T06:47:43.127Z,11.43
2019-04-28T06:50:14.501Z,10.33
2019-04-28T06:52:45.743Z,11.00
2019-04-28T06:55:17.013Z,10.07
2019-04-28T06:57:48.237Z,9.47
2019-04-28T07:00:19.562Z,13.20
2019-04-28T07:02:50.769Z,12.50
2019-04-28T07:05:21.950Z,12.30
2019-04-28T07:07:53.144Z,12.20
2019-04-28T07:10:24.401Z,10.50
2019-04-28T07:12:55.657Z,10.18
2019-04-28T07:15:26.919Z,10.45
2019-04-28T07:17:58.100Z,11.10
2019-04-28T07:20:54.313Z,10.77
2019-04-28T07:23:25.659Z,11.35
2019-04-28T07:25:57.074Z,12.55
2019-04-28T07:28:28.293Z,12.13
2019-04-28T07:30:59.611Z,10.80
2019-04-28T07:33:36.047Z,13.72
2019-04-28T07:36:03.830Z,15.80
2019-04-28T07:38:35.082Z,14.38
2019-04-28T07:41:06.636Z,14.03
2019-04-28T07:43:37.794Z,14.63
2019-04-28T07:46:09.102Z,12.37
2019-04-28T07:48:40.283Z,14.23
2019-04-28T07:51:11.483Z,11.90
2019-04-28T07:54:06.429Z,11.50
2019-04-28T07:56:37.770Z,14.33
2019-04-28T07:59:09.095Z,11.13
2019-04-28T08:01:40.315Z,11.53
2019-04-28T08:04:11.614Z,9.43
2019-04-28T08:06:42.879Z,10.35
2019-04-28T08:09:16.093Z,9.53
2019-04-28T08:11:47.317Z,8.83
2019-04-28T08:14:19.864Z,8.00
2019-04-28T08:16:51.268Z,7.15
2019-04-28T08:19:22.533Z,5.30
2019-04-28T08:21:53.745Z,7.53
2019-04-28T08:24:24.977Z,7.33
2019-04-28T08:26:56.166Z,8.27
2019-04-28T08:29:27.317Z,5.10
2019-04-28T08:32:15.374Z,6.83
2019-04-28T08:34:46.505Z,6.28
2019-04-28T08:37:17.710Z,8.10
2019-04-28T08:39:48.972Z,7.40
2019-04-28T08:42:20.175Z,8.48
2019-04-28T08:44:51.434Z,7.10
2019-04-28T08:47:22.717Z,7.37
2019-04-28T08:49:54.046Z,8.30
2019-04-28T08:52:25.254Z,7.37
2019-04-28T08:54:56.525Z,11.87
2019-04-28T08:57:28.118Z,8.85
2019-04-28T08:59:59.347Z,10.60
2019-04-28T09:02:30.630Z,9.15
2019-04-28T09:05:01.807Z,12.50
2019-04-28T09:07:33.120Z,8.38
2019-04-28T09:10:06.320Z,12.03
2019-04-28T09:12:37.569Z,9.15
2019-04-28T09:15:09.127Z,10.65
2019-04-28T09:17:40.475Z,12.03
2019-04-28T09:20:11.675Z,10.92
2019-04-28T09:22:42.939Z,10.68
2019-04-28T09:25:14.232Z,13.05
2019-04-28T09:27:45.401Z,16.05
2019-04-28T09:30:16.801Z,11.20
2019-04-28T09:32:48.092Z,9.50
2019-04-28T09:35:19.364Z,9.63
2019-04-28T09:37:50.659Z,8.08
2019-04-28T09:40:21.977Z,7.67
2019-04-28T09:43:14.963Z,6.10
2019-04-28T09:45:54.974Z,7.55
2019-04-28T09:48:26.166Z,16.25
2019-04-28T09:50:57.366Z,8.78
2019-04-28T09:53:28.638Z,7.97
2019-04-28T09:55:59.829Z,7.25
2019-04-28T09:58:31.148Z,9.28
2019-04-28T10:01:02.501Z,9.13
2019-04-28T10:03:33.740Z,8.78
2019-04-28T10:06:05.055Z,11.65
2019-04-28T10:08:36.724Z,11.88
2019-04-28T10:11:08.180Z,9.90
2019-04-28T10:13:39.461Z,8.48
2019-04-28T10:16:10.661Z,9.85
2019-04-28T10:18:41.908Z,8.45
2019-04-28T10:21:13.086Z,12.77
2019-04-28T10:23:45.824Z,14.38
2019-04-28T10:26:17.056Z,11.53
2019-04-28T10:28:48.290Z,14.30
2019-04-28T10:31:19.532Z,13.53
2019-04-28T10:33:54.923Z,12.20
2019-04-28T10:36:27.748Z,14.25
2019-04-28T10:39:18.988Z,12.60
2019-04-28T10:41:50.516Z,10.20
2019-04-28T10:44:22.440Z,15.00
2019-04-28T10:46:53.623Z,13.18
2019-04-28T10:49:24.806Z,12.78
2019-04-28T10:51:59.350Z,18.65
2019-04-28T10:54:30.025Z,17.70
2019-04-28T10:57:01.285Z,16.60
2019-04-28T10:59:32.467Z,17.12
2019-04-28T11:02:03.642Z,16.90
2019-04-28T11:04:52.910Z,13.53
2019-04-28T11:07:24.191Z,16.73
2019-04-28T11:10:01.285Z,10.68
2019-04-28T11:12:32.660Z,11.78
2019-04-28T11:15:05.844Z,12.15
2019-04-28T11:17:37.090Z,12.13
2019-04-28T11:20:08.414Z,14.78
2019-04-28T11:22:39.643Z,17.60
2019-04-28T11:25:10.902Z,15.83
2019-04-28T11:27:42.239Z,14.20
2019-04-28T11:30:14.271Z,15.50
2019-04-28T11:32:55.903Z,17.95
2019-04-28T11:35:29.105Z,14.45
2019-04-28T11:38:00.361Z,14.17
2019-04-28T11:40:31.672Z,14.60
2019-04-28T11:43:02.860Z,13.70
2019-04-28T11:45:34.076Z,14.38
2019-04-28T11:48:05.276Z,12.33
2019-04-28T11:50:36.544Z,11.48
2019-04-28T11:53:07.846Z,13.10
2019-04-28T11:55:39.085Z,19.57
2019-04-28T11:58:10.325Z,16.32
2019-04-28T12:00:41.806Z,12.65
2019-04-28T12:03:13.193Z,11.97
2019-04-28T12:05:47.400Z,15.23
2019-04-28T12:08:18.779Z,9.30
2019-04-28T12:11:00.767Z,11.12
2019-04-28T12:13:53.711Z,10.28
2019-04-28T12:16:36.154Z,10.80
2019-04-28T12:19:14.596Z,11.85
2019-04-28T12:21:45.796Z,12.90
2019-04-28T12:24:17.011Z,19.97
2019-04-28T12:26:48.241Z,15.80
2019-04-28T12:29:19.390Z,13.80
2019-04-28T12:31:50.647Z,10.30
2019-04-28T12:34:21.944Z,12.37
2019-04-28T12:36:53.147Z,11.43
2019-04-28T12:39:24.336Z,13.32
2019-04-28T12:41:55.584Z,11.35
2019-04-28T12:44:26.776Z,11.78
2019-04-28T12:46:57.975Z,11.43
2019-04-28T12:49:34.166Z,9.40
2019-04-28T12:52:06.869Z,12.23
2019-04-28T12:54:39.836Z,8.55
2019-04-28T12:57:10.992Z,8.70
2019-04-28T12:59:53.103Z,8.48
2019-04-28T13:02:42.083Z,12.30
2019-04-28T13:05:14.414Z,13.98
2019-04-28T13:07:45.622Z,11.65
2019-04-28T13:10:16.887Z,10.63
2019-04-28T13:12:48.118Z,11.85
2019-04-28T13:15:19.387Z,12.33
2019-04-28T13:17:50.624Z,15.03
2019-04-28T13:20:21.868Z,13.63
2019-04-28T13:22:53.158Z,12.00
2019-04-28T13:25:24.423Z,12.28
2019-04-28T13:27:55.681Z,13.28
2019-04-28T13:30:26.934Z,11.95
2019-04-28T13:32:58.117Z,12.93
2019-04-28T13:35:29.353Z,15.98
2019-04-28T13:38:00.636Z,13.80
2019-04-28T13:40:34.033Z,11.78
2019-04-28T13:43:06.418Z,9.68
2019-04-28T13:45:37.655Z,12.35
2019-04-28T13:48:08.910Z,12.53
2019-04-28T13:50:40.172Z,10.10
2019-04-28T13:53:11.432Z,9.40
2019-04-28T13:55:59.800Z,10.10
2019-04-28T13:58:36.532Z,10.15
2019-04-28T14:01:15.248Z,8.95
2019-04-28T14:04:05.386Z,10.05
2019-04-28T14:06:40.650Z,9.35
2019-04-28T14:09:15.826Z,9.25
2019-04-28T14:11:47.722Z,8.98
2019-04-28T14:14:19.029Z,7.58
2019-04-28T14:16:50.137Z,9.77
2019-04-28T14:19:21.351Z,8.63
2019-04-28T14:21:52.531Z,8.28
2019-04-28T14:24:23.755Z,6.55
2019-04-28T14:26:54.979Z,6.87
2019-04-28T14:29:26.296Z,7.53
2019-04-28T14:31:57.583Z,7.47
2019-04-28T14:34:28.807Z,8.60
2019-04-28T14:37:00.029Z,5.40
2019-04-28T14:39:32.327Z,6.30
2019-04-28T14:42:03.685Z,4.72
2019-04-28T14:44:34.970Z,4.60
2019-04-28T14:47:07.272Z,4.83
2019-04-28T14:49:38.469Z,6.78
2019-04-28T14:52:10.330Z,6.00
2019-04-28T14:54:42.883Z,4.87
2019-04-28T14:57:13.986Z,4.70
2019-04-28T14:59:45.179Z,3.65
2019-04-28T15:02:44.206Z,3.50
2019-04-28T15:05:43.791Z,5.23
2019-04-28T15:08:39.861Z,3.80
2019-04-28T15:11:21.288Z,3.10
2019-04-28T15:13:55.254Z,3.98
2019-04-28T15:16:25.380Z,2.83
2019-04-28T15:18:57.690Z,5.03
2019-04-28T15:21:28.875Z,5.65
2019-04-28T15:24:00.101Z,5.53
2019-04-28T15:26:31.303Z,4.25
2019-04-28T15:29:02.501Z,3.00
2019-04-28T15:31:33.775Z,6.92
2019-04-28T15:34:04.943Z,6.70
2019-04-28T15:36:36.135Z,3.77
2019-04-28T15:39:09.200Z,4.20
2019-04-28T15:41:40.599Z,2.62
2019-04-28T15:44:11.844Z,3.85
2019-04-28T15:46:43.189Z,4.58
2019-04-28T15:49:15.428Z,4.17
2019-04-28T15:51:46.633Z,3.42
2019-04-28T15:54:17.853Z,2.50
2019-04-28T15:56:50.704Z,3.40
2019-04-28T15:59:23.869Z,2.57
2019-04-28T16:01:55.141Z,15.93
2019-04-28T16:04:26.434Z,7.15
2019-04-28T16:06:57.594Z,3.30
2019-04-28T16:09:28.792Z,4.65
2019-04-28T16:11:59.961Z,4.15
2019-04-28T16:14:31.120Z,4.33
2019-04-28T16:17:02.332Z,3.87
2019-04-28T16:19:33.523Z,4.83
2019-04-28T16:22:04.881Z,25.62
2019-04-28T16:24:36.212Z,6.12
2019-04-28T16:27:09.053Z,3.70
2019-04-28T16:29:40.241Z,27.95
2019-04-28T16:32:11.504Z,8.74
2019-04-28T16:34:42.780Z,4.33
2019-04-28T16:37:13.958Z,3.67
2019-04-28T16:39:45.184Z,3.05
2019-04-28T16:42:24.696Z,4.97
2019-04-28T16:44:59.433Z,3.25
2019-04-28T16:47:38.709Z,5.90
2019-04-28T16:50:10.188Z,3.87
2019-04-28T16:52:41.452Z,3.15
2019-04-28T16:55:20.269Z,2.97
2019-04-28T16:58:18.556Z,3.62
2019-04-28T17:01:08.839Z,4.30
2019-04-28T17:03:41.735Z,6.53
2019-04-28T17:06:13.012Z,5.97
2019-04-28T17:08:44.674Z,3.43
2019-04-28T17:11:17.190Z,18.37
2019-04-28T17:13:48.404Z,3.75
2019-04-28T17:16:19.640Z,5.03
2019-04-28T17:18:50.825Z,3.98
2019-04-28T17:21:22.178Z,3.60
2019-04-28T17:26:36.669Z,3.83
2019-04-28T17:29:07.900Z,3.60
2019-04-28T17:31:39.241Z,4.15
2019-04-28T17:34:10.642Z,5.25
2019-04-28T17:36:44.356Z,5.35
2019-04-28T17:39:19.022Z,6.10
2019-04-28T17:41:50.375Z,3.58
2019-04-28T17:44:25.532Z,4.70
2019-04-28T17:46:57.530Z,3.00
2019-04-28T17:49:33.956Z,5.28
2019-04-28T17:52:06.425Z,4.90
2019-04-28T17:54:37.835Z,5.70
2019-04-28T17:57:09.224Z,5.28
2019-04-28T17:59:40.462Z,5.78
2019-04-28T18:02:29.205Z,5.00
2019-04-28T18:05:26.612Z,5.15
2019-04-28T18:08:01.619Z,4.00
2019-04-28T18:10:33.650Z,6.80
2019-04-28T18:13:05.438Z,4.03
2019-04-28T18:15:46.957Z,6.08
2019-04-28T18:18:29.428Z,7.40
2019-04-28T18:21:00.737Z,5.83
2019-04-28T18:23:32.324Z,5.45
2019-04-28T18:26:03.658Z,4.60
2019-04-28T18:28:35.136Z,8.08
2019-04-28T18:31:25.511Z,53.92
2019-04-28T18:34:22.774Z,9.55
2019-04-28T18:37:04.292Z,7.60
2019-04-28T18:40:03.955Z,5.97
2019-04-28T18:43:00.005Z,7.40
2019-04-28T18:45:31.498Z,5.45
2019-04-28T18:48:02.765Z,7.40
2019-04-28T18:50:34.115Z,6.97
2019-04-28T18:53:05.517Z,16.62
2019-04-28T18:55:36.883Z,8.18
2019-04-28T18:58:08.165Z,5.67
2019-04-28T19:00:41.575Z,6.40
2019-04-28T19:03:14.183Z,6.77
2019-04-28T19:05:47.322Z,5.05
2019-04-28T19:08:49.472Z,6.35
2019-04-28T19:11:29.724Z,10.88
2019-04-28T19:14:06.071Z,8.48
2019-04-28T19:16:56.309Z,5.50
2019-04-28T19:19:28.789Z,4.65
2019-04-28T19:22:00.284Z,4.65
2019-04-28T19:24:31.761Z,4.62
2019-04-28T19:27:03.088Z,5.33
2019-04-28T19:29:34.631Z,6.65
2019-04-28T19:32:06.301Z,9.10
2019-04-28T19:34:37.782Z,5.43
2019-04-28T19:37:09.063Z,5.40
2019-04-28T19:39:40.931Z,6.20
2019-04-28T19:42:12.393Z,5.50
2019-04-28T19:44:43.894Z,6.17
2019-04-28T19:47:15.265Z,5.40
2019-04-28T19:49:46.869Z,6.83
2019-04-28T19:52:18.336Z,10.85
2019-04-28T19:55:23.919Z,8.55
2019-04-28T19:58:14.431Z,6.17
2019-04-28T20:01:10.891Z,8.93
2019-04-28T20:03:42.308Z,9.90
2019-04-28T20:06:13.613Z,9.07
2019-04-28T20:08:44.935Z,10.60
2019-04-28T20:11:16.351Z,6.55
2019-04-28T20:13:47.678Z,8.65
2019-04-28T20:16:19.008Z,7.03
2019-04-28T20:18:50.287Z,7.50
2019-04-28T20:21:22.655Z,8.70
2019-04-28T20:23:54.072Z,6.85
2019-04-28T20:26:25.426Z,8.77
2019-04-28T20:28:56.699Z,8.90
2019-04-28T20:31:27.978Z,6.95
2019-04-28T20:33:59.204Z,9.07
2019-04-28T20:36:51.870Z,8.68
2019-04-28T20:39:28.136Z,6.90
2019-04-28T20:42:18.507Z,7.22
2019-04-28T20:44:50.266Z,7.95
2019-04-28T20:47:21.568Z,8.38
2019-04-28T20:49:52.873Z,7.62
2019-04-28T20:52:24.131Z,6.30
2019-04-28T20:54:56.709Z,7.97
2019-04-28T20:57:30.849Z,6.12
2019-04-28T21:00:02.250Z,6.85
2019-04-28T21:02:34.834Z,9.68
2019-04-28T21:05:06.885Z,7.28
2019-04-28T21:07:38.293Z,9.65
2019-04-28T21:10:09.690Z,6.10
2019-04-28T21:12:41.018Z,9.78
2019-04-28T21:15:12.712Z,8.73
2019-04-28T21:17:44.028Z,6.35
2019-04-28T21:20:15.465Z,6.87
2019-04-28T21:22:46.734Z,9.25
2019-04-28T21:25:18.149Z,8.73
2019-04-28T21:27:49.473Z,9.10
2019-04-28T21:30:20.809Z,8.00
2019-04-28T21:32:52.109Z,8.45
2019-04-28T21:35:23.446Z,8.20
2019-04-28T21:37:54.769Z,7.03
2019-04-28T21:40:26.921Z,8.33
2019-04-28T21:43:20.410Z,6.72
2019-04-28T21:46:08.615Z,8.00
2019-04-28T21:48:51.868Z,6.85
2019-04-28T21:51:23.102Z,7.12
2019-04-28T21:53:54.348Z,6.55
2019-04-28T21:56:26.651Z,8.73
2019-04-28T21:58:57.918Z,7.28
2019-04-28T22:01:29.282Z,7.37
2019-04-28T22:04:00.833Z,12.13
2019-04-28T22:06:32.199Z,7.20
2019-04-28T22:09:04.962Z,7.15
2019-04-28T22:11:38.189Z,7.15
2019-04-28T22:14:09.777Z,8.25
2019-04-28T22:16:41.197Z,9.88
2019-04-28T22:19:12.463Z,6.47
2019-04-28T22:21:43.732Z,6.65
2019-04-28T22:24:42.888Z,6.40
2019-04-28T22:27:17.155Z,8.08
2019-04-28T22:29:48.390Z,7.37
2019-04-28T22:32:19.854Z,10.07
2019-04-28T22:34:51.130Z,6.80
2019-04-28T22:37:22.342Z,7.50
2019-04-28T22:39:54.704Z,6.47
2019-04-28T22:42:26.004Z,7.03
2019-04-28T22:44:57.259Z,6.50
2019-04-28T22:47:32.724Z,9.40
2019-04-28T22:50:07.095Z,7.08
2019-04-28T22:52:39.118Z,6.50
2019-04-28T22:55:18.956Z,6.42
2019-04-28T22:57:59.621Z,7.53
2019-04-28T23:00:49.102Z,10.63
2019-04-28T23:03:45.472Z,6.78
2019-04-28T23:06:16.913Z,7.70
2019-04-28T23:08:48.122Z,7.40
2019-04-28T23:11:19.437Z,7.07
2019-04-28T23:13:51.754Z,6.25
2019-04-28T23:16:23.228Z,6.47
2019-04-28T23:18:54.521Z,7.25
2019-04-28T23:21:34.646Z,6.20
2019-04-28T23:24:06.748Z,8.28
2019-04-28T23:26:39.257Z,6.87
2019-04-28T23:29:10.695Z,8.03
2019-04-28T23:31:42.002Z,10.35
2019-04-28T23:34:13.342Z,8.98
2019-04-28T23:36:44.596Z,9.03
2019-04-28T23:39:15.870Z,7.33
2019-04-28T23:42:08.733Z,9.75
2019-04-28T23:44:40.064Z,7.45
2019-04-28T23:47:11.426Z,6.78
2019-04-28T23:49:42.617Z,7.65
2019-04-28T23:52:32.017Z,8.23
2019-04-28T23:55:04.825Z,8.35
2019-04-28T23:57:36.069Z,9.60
